createdAt,value
2019-02-02T00:00:34.395Z,0
2019-02-02T00:01:34.658Z,0
2019-02-02T00:02:33.880Z,0
2019-02-02T00:03:34.393Z,0
2019-02-02T00:04:34.619Z,0
2019-02-02T00:05:34.339Z,0
2019-02-02T00:06:34.361Z,0
2019-02-02T00:07:34.072Z,0
2019-02-02T00:08:34.570Z,0
2019-02-02T00:09:34.702Z,0
2019-02-02T00:10:34.523Z,0
2019-02-02T00:11:34.538Z,0
2019-02-02T00:12:34.593Z,0
2019-02-02T00:13:34.015Z,0
2019-02-02T00:14:34.539Z,0
2019-02-02T00:15:33.999Z,0
2019-02-02T00:16:33.995Z,0
2019-02-02T00:17:34.236Z,0
2019-02-02T00:18:34.216Z,0
2019-02-02T00:19:34.230Z,0
2019-02-02T00:20:34.445Z,0
2019-02-02T00:21:34.212Z,0
2019-02-02T00:22:34.209Z,0
2019-02-02T00:23:34.423Z,0
2019-02-02T00:24:34.162Z,0
2019-02-02T00:25:34.510Z,0
2019-02-02T00:26:34.147Z,0
2019-02-02T00:27:45.866Z,0
2019-02-02T00:28:33.867Z,0
2019-02-02T00:29:34.102Z,0
2019-02-02T00:30:34.375Z,0
2019-02-02T00:31:34.110Z,0
2019-02-02T00:32:34.340Z,0
2019-02-02T00:33:33.963Z,0
2019-02-02T00:34:33.807Z,0
2019-02-02T00:35:34.044Z,0
2019-02-02T00:36:34.034Z,0
2019-02-02T00:37:34.028Z,0
2019-02-02T00:38:34.269Z,0
2019-02-02T00:39:34.017Z,0
2019-02-02T00:40:34.250Z,0
2019-02-02T00:41:34.003Z,0
2019-02-02T00:42:34.072Z,0
2019-02-02T00:43:34.215Z,0
2019-02-02T00:44:33.972Z,0
2019-02-02T00:45:34.327Z,0
2019-02-02T00:46:33.948Z,0
2019-02-02T00:47:33.926Z,0
2019-02-02T00:48:34.172Z,0
2019-02-02T00:49:33.468Z,0
2019-02-02T00:50:33.901Z,0
2019-02-02T00:51:33.919Z,0
2019-02-02T00:52:33.666Z,0
2019-02-02T00:53:33.895Z,0
2019-02-02T00:54:33.365Z,0
2019-02-02T00:55:33.873Z,0
2019-02-02T00:56:33.609Z,0
2019-02-02T00:57:34.099Z,0
2019-02-02T00:58:33.857Z,0
2019-02-02T00:59:33.823Z,0
2019-02-02T01:00:33.584Z,0
2019-02-02T01:01:34.067Z,0
2019-02-02T01:02:33.683Z,0
2019-02-02T01:03:33.564Z,0
2019-02-02T01:04:33.808Z,0
2019-02-02T01:05:33.764Z,0
2019-02-02T01:06:33.772Z,0
2019-02-02T01:07:33.486Z,0
2019-02-02T01:08:33.745Z,0
2019-02-02T01:09:33.756Z,0
2019-02-02T01:10:33.725Z,0
2019-02-02T01:11:34.074Z,0
2019-02-02T01:12:33.710Z,0
2019-02-02T01:13:33.924Z,0
2019-02-02T01:14:33.657Z,0
2019-02-02T01:15:33.418Z,0
2019-02-02T01:16:33.474Z,0
2019-02-02T01:17:33.655Z,0
2019-02-02T01:18:33.941Z,0
2019-02-02T01:19:33.925Z,0
2019-02-02T01:20:33.427Z,0
2019-02-02T01:21:33.133Z,0
2019-02-02T01:22:33.612Z,0
2019-02-02T01:23:33.953Z,0
2019-02-02T01:24:33.374Z,0
2019-02-02T01:25:33.695Z,0
2019-02-02T01:26:33.603Z,0
2019-02-02T01:27:33.544Z,0
2019-02-02T01:28:33.569Z,0
2019-02-02T01:29:33.631Z,0
2019-02-02T01:30:33.543Z,0
2019-02-02T01:31:33.548Z,0
2019-02-02T01:32:33.499Z,0
2019-02-02T01:33:33.233Z,0
2019-02-02T01:34:33.224Z,0
2019-02-02T01:35:33.471Z,0
2019-02-02T01:36:33.475Z,0
2019-02-02T01:37:33.712Z,0
2019-02-02T01:38:33.700Z,0
2019-02-02T01:39:33.428Z,0
2019-02-02T01:40:33.425Z,0
2019-02-02T01:41:33.671Z,0
2019-02-02T01:42:33.179Z,0
2019-02-02T01:43:33.659Z,0
2019-02-02T01:44:33.387Z,0
2019-02-02T01:45:33.674Z,0
2019-02-02T01:46:33.204Z,0
2019-02-02T01:47:33.358Z,0
2019-02-02T01:48:33.340Z,0
2019-02-02T01:49:33.081Z,0
2019-02-02T01:50:33.195Z,0
2019-02-02T01:51:33.552Z,0
2019-02-02T01:52:33.056Z,0
2019-02-02T01:53:33.304Z,0
2019-02-02T01:54:33.531Z,0
2019-02-02T01:55:32.785Z,0
2019-02-02T01:56:33.037Z,0
2019-02-02T01:57:33.264Z,0
2019-02-02T01:58:33.258Z,0
2019-02-02T01:59:33.469Z,0
2019-02-02T02:00:32.726Z,0
2019-02-02T02:01:33.466Z,0
2019-02-02T02:02:33.448Z,0
2019-02-02T02:03:32.958Z,0
2019-02-02T02:04:33.181Z,0
2019-02-02T02:05:33.499Z,0
2019-02-02T02:06:33.170Z,0
2019-02-02T02:07:33.193Z,0
2019-02-02T02:08:33.380Z,0
2019-02-02T02:09:33.127Z,0
2019-02-02T02:10:33.114Z,0
2019-02-02T02:11:33.111Z,0
2019-02-02T02:12:32.852Z,0
2019-02-02T02:13:32.844Z,0
2019-02-02T02:14:33.086Z,0
2019-02-02T02:15:33.091Z,0
2019-02-02T02:16:33.317Z,0
2019-02-02T02:17:33.045Z,0
2019-02-02T02:18:32.796Z,0
2019-02-02T02:19:32.544Z,0
2019-02-02T02:20:33.016Z,0
2019-02-02T02:21:33.056Z,0
2019-02-02T02:22:43.356Z,0
2019-02-02T02:23:32.999Z,0
2019-02-02T02:24:33.249Z,0
2019-02-02T02:25:32.970Z,0
2019-02-02T02:26:33.255Z,0
2019-02-02T02:27:32.702Z,0
2019-02-02T02:28:35.523Z,0
2019-02-02T02:29:32.693Z,0
2019-02-02T02:30:33.188Z,0
2019-02-02T02:31:33.165Z,0
2019-02-02T02:32:33.152Z,0
2019-02-02T02:33:33.141Z,0
2019-02-02T02:34:32.922Z,0
2019-02-02T02:35:33.146Z,0
2019-02-02T02:36:33.145Z,0
2019-02-02T02:37:32.853Z,0
2019-02-02T02:38:32.857Z,0
2019-02-02T02:39:32.868Z,0
2019-02-02T02:40:33.057Z,0
2019-02-02T02:41:33.061Z,0
2019-02-02T02:42:32.797Z,0
2019-02-02T02:43:32.614Z,0
2019-02-02T02:44:32.820Z,0
2019-02-02T02:45:33.036Z,0
2019-02-02T02:46:32.817Z,0
2019-02-02T02:47:32.873Z,0
2019-02-02T02:48:32.735Z,0
2019-02-02T02:49:32.772Z,0
2019-02-02T02:50:32.722Z,0
2019-02-02T02:51:32.956Z,0
2019-02-02T02:52:32.690Z,0
2019-02-02T02:53:32.423Z,0
2019-02-02T02:54:32.433Z,0
2019-02-02T02:55:32.917Z,0
2019-02-02T02:56:32.822Z,0
2019-02-02T02:57:32.433Z,0
2019-02-02T02:58:45.487Z,0
2019-02-02T02:59:32.621Z,0
2019-02-02T03:00:32.632Z,0
2019-02-02T03:01:32.602Z,0
2019-02-02T03:02:32.847Z,0
2019-02-02T03:03:32.590Z,0
2019-02-02T03:04:32.865Z,0
2019-02-02T03:05:32.844Z,0
2019-02-02T03:06:32.547Z,0
2019-02-02T03:07:32.787Z,0
2019-02-02T03:08:32.715Z,0
2019-02-02T03:09:32.560Z,0
2019-02-02T03:10:32.785Z,0
2019-02-02T03:11:32.775Z,0
2019-02-02T03:12:32.243Z,0
2019-02-02T03:13:32.760Z,0
2019-02-02T03:14:32.744Z,0
2019-02-02T03:15:32.466Z,0
2019-02-02T03:16:32.687Z,0
2019-02-02T03:17:32.449Z,0
2019-02-02T03:18:32.186Z,0
2019-02-02T03:19:32.741Z,0
2019-02-02T03:20:32.660Z,0
2019-02-02T03:21:32.418Z,0
2019-02-02T03:22:32.397Z,0
2019-02-02T03:23:32.181Z,0
2019-02-02T03:24:32.606Z,0
2019-02-02T03:25:32.775Z,0
2019-02-02T03:26:32.104Z,0
2019-02-02T03:27:32.343Z,0
2019-02-02T03:28:32.560Z,0
2019-02-02T03:29:32.315Z,0
2019-02-02T03:30:32.689Z,0
2019-02-02T03:31:32.566Z,0
2019-02-02T03:32:32.290Z,0
2019-02-02T03:33:32.530Z,0
2019-02-02T03:34:32.524Z,0
2019-02-02T03:35:32.512Z,0
2019-02-02T03:36:32.238Z,0
2019-02-02T03:37:32.300Z,0
2019-02-02T03:38:32.207Z,0
2019-02-02T03:39:31.971Z,0
2019-02-02T03:40:32.448Z,0
2019-02-02T03:41:32.187Z,0
2019-02-02T03:42:32.184Z,0
2019-02-02T03:43:31.916Z,0
2019-02-02T03:44:32.455Z,0
2019-02-02T03:45:31.886Z,0
2019-02-02T03:46:32.268Z,0
2019-02-02T03:47:32.371Z,0
2019-02-02T03:48:32.379Z,0
2019-02-02T03:49:31.855Z,0
2019-02-02T03:50:32.078Z,0
2019-02-02T03:51:32.076Z,0
2019-02-02T03:52:32.325Z,0
2019-02-02T03:53:32.056Z,0
2019-02-02T03:54:32.038Z,0
2019-02-02T03:55:31.784Z,0
2019-02-02T03:56:32.038Z,0
2019-02-02T03:57:32.282Z,0
2019-02-02T03:58:31.993Z,0
2019-02-02T03:59:31.785Z,0
2019-02-02T04:00:31.998Z,0
2019-02-02T04:01:34.944Z,0
2019-02-02T04:02:31.954Z,0
2019-02-02T04:03:31.940Z,0
2019-02-02T04:04:32.234Z,0
2019-02-02T04:05:32.181Z,0
2019-02-02T04:06:31.677Z,0
2019-02-02T04:07:31.918Z,0
2019-02-02T04:08:31.884Z,0
2019-02-02T04:09:31.682Z,0
2019-02-02T04:10:32.130Z,0
2019-02-02T04:11:31.859Z,0
2019-02-02T04:12:31.843Z,0
2019-02-02T04:13:31.586Z,0
2019-02-02T04:14:32.095Z,0
2019-02-02T04:15:31.985Z,0
2019-02-02T04:16:31.641Z,0
2019-02-02T04:17:31.885Z,0
2019-02-02T04:18:32.023Z,0
2019-02-02T04:19:31.509Z,0
2019-02-02T04:20:31.745Z,0
2019-02-02T04:21:31.761Z,0
2019-02-02T04:22:31.974Z,0
2019-02-02T04:23:31.700Z,0
2019-02-02T04:24:31.964Z,0
2019-02-02T04:25:31.441Z,0
2019-02-02T04:26:31.974Z,0
2019-02-02T04:27:31.660Z,0
2019-02-02T04:28:31.666Z,0
2019-02-02T04:29:31.899Z,0
2019-02-02T04:30:31.389Z,0
2019-02-02T04:31:31.877Z,0
2019-02-02T04:32:31.629Z,0
2019-02-02T04:33:31.364Z,0
2019-02-02T04:34:31.600Z,0
2019-02-02T04:35:31.890Z,0
2019-02-02T04:36:31.822Z,0
2019-02-02T04:37:31.553Z,0
2019-02-02T04:38:31.553Z,0
2019-02-02T04:39:31.536Z,0
2019-02-02T04:40:31.272Z,0
2019-02-02T04:41:31.627Z,0
2019-02-02T04:42:31.752Z,0
2019-02-02T04:43:31.486Z,0
2019-02-02T04:44:31.242Z,0
2019-02-02T04:45:31.717Z,0
2019-02-02T04:46:31.460Z,0
2019-02-02T04:47:31.199Z,0
2019-02-02T04:48:34.679Z,0
2019-02-02T04:49:31.436Z,0
2019-02-02T04:50:31.675Z,0
2019-02-02T04:51:31.420Z,0
2019-02-02T04:52:31.159Z,0
2019-02-02T04:53:31.638Z,0
2019-02-02T04:54:31.365Z,0
2019-02-02T04:55:31.348Z,0
2019-02-02T04:56:31.351Z,0
2019-02-02T04:57:31.096Z,0
2019-02-02T04:58:31.592Z,0
2019-02-02T04:59:36.416Z,0
2019-02-02T05:00:31.435Z,0
2019-02-02T05:01:31.556Z,0
2019-02-02T05:02:32.942Z,0
2019-02-02T05:03:31.522Z,0
2019-02-02T05:04:31.279Z,0
2019-02-02T05:05:30.913Z,0
2019-02-02T05:06:31.640Z,0
2019-02-02T05:07:30.979Z,0
2019-02-02T05:08:31.510Z,0
2019-02-02T05:09:31.461Z,0
2019-02-02T05:10:31.464Z,0
2019-02-02T05:11:31.214Z,0
2019-02-02T05:12:31.187Z,0
2019-02-02T05:13:31.193Z,0
2019-02-02T05:14:31.151Z,0
2019-02-02T05:15:30.898Z,0
2019-02-02T05:16:31.167Z,0
2019-02-02T05:17:31.393Z,0
2019-02-02T05:18:31.375Z,0
2019-02-02T05:19:31.480Z,0
2019-02-02T05:20:31.088Z,0
2019-02-02T05:21:31.359Z,0
2019-02-02T05:22:31.077Z,0
2019-02-02T05:23:31.351Z,0
2019-02-02T05:24:31.310Z,0
2019-02-02T05:25:30.830Z,0
2019-02-02T05:26:31.057Z,0
2019-02-02T05:27:31.290Z,0
2019-02-02T05:28:31.011Z,0
2019-02-02T05:29:40.971Z,0
2019-02-02T05:30:30.995Z,0
2019-02-02T05:31:30.994Z,0
2019-02-02T05:32:30.727Z,0
2019-02-02T05:33:30.724Z,0
2019-02-02T05:34:31.224Z,0
2019-02-02T05:35:30.961Z,0
2019-02-02T05:36:31.205Z,0
2019-02-02T05:37:31.209Z,0
2019-02-02T05:38:31.173Z,0
2019-02-02T05:39:30.647Z,0
2019-02-02T05:40:30.928Z,0
2019-02-02T05:41:30.658Z,0
2019-02-02T05:42:31.124Z,0
2019-02-02T05:43:31.126Z,0
2019-02-02T05:44:30.849Z,0
2019-02-02T05:45:30.859Z,0
2019-02-02T05:46:30.832Z,0
2019-02-02T05:47:31.062Z,0
2019-02-02T05:48:31.051Z,0
2019-02-02T05:49:30.815Z,0
2019-02-02T05:50:30.795Z,0
2019-02-02T05:51:30.547Z,0
2019-02-02T05:52:31.040Z,0
2019-02-02T05:53:30.776Z,0
2019-02-02T05:54:31.000Z,0
2019-02-02T05:55:30.770Z,0
2019-02-02T05:56:31.086Z,0
2019-02-02T05:57:30.749Z,0
2019-02-02T05:58:31.007Z,0
2019-02-02T05:59:30.693Z,0
2019-02-02T06:00:30.947Z,0
2019-02-02T06:01:32.580Z,0
2019-02-02T06:02:30.667Z,0
2019-02-02T06:03:30.909Z,0
2019-02-02T06:04:30.910Z,0
2019-02-02T06:05:30.406Z,0
2019-02-02T06:06:30.897Z,0
2019-02-02T06:07:30.863Z,0
2019-02-02T06:08:30.867Z,0
2019-02-02T06:09:30.608Z,0
2019-02-02T06:10:30.611Z,0
2019-02-02T06:11:31.752Z,0
2019-02-02T06:12:30.323Z,0
2019-02-02T06:13:30.575Z,0
2019-02-02T06:14:30.815Z,0
2019-02-02T06:15:33.316Z,0
2019-02-02T06:16:30.786Z,0
2019-02-02T06:17:30.766Z,0
2019-02-02T06:18:30.759Z,0
2019-02-02T06:19:30.738Z,0
2019-02-02T06:20:30.769Z,0
2019-02-02T06:21:30.740Z,0
2019-02-02T06:22:30.719Z,0
2019-02-02T06:23:30.477Z,0
2019-02-02T06:24:30.704Z,0
2019-02-02T06:25:30.691Z,0
2019-02-02T06:26:30.684Z,0
2019-02-02T06:27:30.453Z,0
2019-02-02T06:28:30.404Z,4
2019-02-02T06:29:30.659Z,4
2019-02-02T06:30:30.668Z,4
2019-02-02T06:31:30.630Z,0
2019-02-02T06:32:30.651Z,4
2019-02-02T06:33:30.625Z,4
2019-02-02T06:34:30.118Z,8
2019-02-02T06:35:30.356Z,4
2019-02-02T06:36:30.327Z,8
2019-02-02T06:37:30.564Z,8
2019-02-02T06:38:30.320Z,8
2019-02-02T06:39:30.558Z,8
2019-02-02T06:40:30.060Z,8
2019-02-02T06:41:30.039Z,12
2019-02-02T06:42:30.512Z,12
2019-02-02T06:43:32.807Z,20
2019-02-02T06:44:30.494Z,20
2019-02-02T06:45:30.502Z,24
2019-02-02T06:46:30.600Z,24
2019-02-02T06:47:30.206Z,28
2019-02-02T06:48:30.458Z,32
2019-02-02T06:49:30.216Z,36
2019-02-02T06:50:30.460Z,44
2019-02-02T06:51:30.415Z,44
2019-02-02T06:52:30.484Z,52
2019-02-02T06:53:30.404Z,56
2019-02-02T06:54:35.713Z,64
2019-02-02T06:55:30.243Z,76
2019-02-02T06:56:30.124Z,84
2019-02-02T06:57:30.127Z,92
2019-02-02T06:58:30.125Z,100
2019-02-02T06:59:29.851Z,112
2019-02-02T07:00:33.439Z,124
2019-02-02T07:01:30.098Z,132
2019-02-02T07:02:30.107Z,140
2019-02-02T07:03:30.298Z,152
2019-02-02T07:04:29.809Z,164
2019-02-02T07:05:30.067Z,172
2019-02-02T07:06:30.273Z,180
2019-02-02T07:07:29.790Z,188
2019-02-02T07:08:30.286Z,204
2019-02-02T07:09:29.999Z,220
2019-02-02T07:10:30.032Z,244
2019-02-02T07:11:29.531Z,272
2019-02-02T07:12:29.742Z,300
2019-02-02T07:13:30.210Z,324
2019-02-02T07:14:29.481Z,340
2019-02-02T07:15:29.700Z,352
2019-02-02T07:16:30.181Z,380
2019-02-02T07:17:29.920Z,404
2019-02-02T07:18:29.920Z,440
2019-02-02T07:19:31.707Z,468
2019-02-02T07:20:29.658Z,496
2019-02-02T07:21:29.875Z,524
2019-02-02T07:22:30.105Z,556
2019-02-02T07:23:29.612Z,584
2019-02-02T07:24:29.356Z,608
2019-02-02T07:25:29.862Z,636
2019-02-02T07:26:30.070Z,660
2019-02-02T07:27:29.944Z,680
2019-02-02T07:28:30.059Z,700
2019-02-02T07:29:30.052Z,720
2019-02-02T07:30:35.910Z,748
2019-02-02T07:31:29.748Z,768
2019-02-02T07:32:29.759Z,792
2019-02-02T07:33:30.001Z,808
2019-02-02T07:34:29.743Z,824
2019-02-02T07:35:29.721Z,844
2019-02-02T07:36:29.593Z,860
2019-02-02T07:37:29.708Z,884
2019-02-02T07:38:29.458Z,916
2019-02-02T07:39:29.675Z,948
2019-02-02T07:40:29.412Z,988
2019-02-02T07:41:29.662Z,1024
2019-02-02T07:42:29.141Z,1060
2019-02-02T07:43:29.631Z,1104
2019-02-02T07:44:29.652Z,1156
2019-02-02T07:45:29.373Z,1200
2019-02-02T07:46:29.113Z,1244
2019-02-02T07:47:29.638Z,1288
2019-02-02T07:48:29.863Z,1336
2019-02-02T07:49:29.580Z,1388
2019-02-02T07:50:29.836Z,1440
2019-02-02T07:51:29.818Z,1492
2019-02-02T07:52:29.297Z,1548
2019-02-02T07:53:29.557Z,1604
2019-02-02T07:54:29.773Z,1648
2019-02-02T07:55:29.889Z,1676
2019-02-02T07:56:29.839Z,1700
2019-02-02T07:57:29.872Z,1724
2019-02-02T07:58:29.471Z,1728
2019-02-02T07:59:29.222Z,1720
2019-02-02T08:00:40.009Z,1716
2019-02-02T08:01:29.776Z,1712
2019-02-02T08:02:29.186Z,1704
2019-02-02T08:03:28.965Z,1688
2019-02-02T08:04:29.679Z,1684
2019-02-02T08:05:29.419Z,1692
2019-02-02T08:06:29.656Z,1712
2019-02-02T08:07:29.381Z,1724
2019-02-02T08:08:29.615Z,1736
2019-02-02T08:09:29.375Z,1756
2019-02-02T08:10:29.364Z,1768
2019-02-02T08:11:29.376Z,1768
2019-02-02T08:12:29.101Z,1800
2019-02-02T08:13:29.588Z,1840
2019-02-02T08:14:29.079Z,1876
2019-02-02T08:15:29.068Z,1952
2019-02-02T08:16:29.302Z,2032
2019-02-02T08:17:32.292Z,2112
2019-02-02T08:18:29.275Z,2204
2019-02-02T08:19:31.981Z,2312
2019-02-02T08:20:29.279Z,2400
2019-02-02T08:21:29.486Z,2456
2019-02-02T08:22:28.992Z,2468
2019-02-02T08:23:28.981Z,2432
2019-02-02T08:24:29.464Z,2388
2019-02-02T08:25:29.079Z,2356
2019-02-02T08:26:29.194Z,2304
2019-02-02T08:27:29.449Z,2248
2019-02-02T08:28:28.938Z,2188
2019-02-02T08:29:29.407Z,2140
2019-02-02T08:30:29.166Z,2084
2019-02-02T08:31:29.139Z,2040
2019-02-02T08:32:29.385Z,2004
2019-02-02T08:33:28.881Z,2008
2019-02-02T08:34:29.121Z,2012
2019-02-02T08:35:29.145Z,2032
2019-02-02T08:36:28.974Z,2012
2019-02-02T08:37:29.102Z,1948
2019-02-02T08:38:29.077Z,1864
2019-02-02T08:39:36.036Z,1776
2019-02-02T08:40:29.318Z,1700
2019-02-02T08:41:29.053Z,1644
2019-02-02T08:42:29.053Z,1604
2019-02-02T08:43:29.273Z,1560
2019-02-02T08:44:32.020Z,1532
2019-02-02T08:45:29.248Z,1516
2019-02-02T08:46:28.498Z,1508
2019-02-02T08:47:28.736Z,1512
2019-02-02T08:48:28.997Z,1564
2019-02-02T08:49:28.972Z,1644
2019-02-02T08:50:28.964Z,1764
2019-02-02T08:51:28.710Z,1928
2019-02-02T08:52:28.936Z,2056
2019-02-02T08:53:29.304Z,2188
2019-02-02T08:54:29.182Z,2412
2019-02-02T08:55:29.022Z,2648
2019-02-02T08:56:28.733Z,2792
2019-02-02T08:57:28.869Z,2884
2019-02-02T08:58:28.902Z,2984
2019-02-02T08:59:28.872Z,3028
2019-02-02T09:00:28.891Z,3108
2019-02-02T09:01:28.852Z,3208
2019-02-02T09:02:28.852Z,3320
2019-02-02T09:03:29.167Z,3396
2019-02-02T09:04:28.680Z,3484
2019-02-02T09:05:28.841Z,3576
2019-02-02T09:06:40.931Z,3676
2019-02-02T09:07:28.790Z,3756
2019-02-02T09:08:28.347Z,3864
2019-02-02T09:09:28.806Z,4000
2019-02-02T09:10:29.024Z,4160
2019-02-02T09:11:28.517Z,4508
2019-02-02T09:12:29.066Z,4508
2019-02-02T09:13:28.738Z,4644
2019-02-02T09:14:28.590Z,4496
2019-02-02T09:15:28.724Z,4212
2019-02-02T09:16:28.545Z,3828
2019-02-02T09:17:28.702Z,3636
2019-02-02T09:18:28.950Z,3540
2019-02-02T09:19:28.703Z,3592
2019-02-02T09:20:28.432Z,3604
2019-02-02T09:21:28.920Z,4564
2019-02-02T09:22:28.181Z,4632
2019-02-02T09:23:28.891Z,4980
2019-02-02T09:24:28.632Z,5780
2019-02-02T09:25:28.650Z,5872
2019-02-02T09:26:28.884Z,4864
2019-02-02T09:27:28.614Z,5368
2019-02-02T09:28:28.886Z,5876
2019-02-02T09:29:28.595Z,5224
2019-02-02T09:30:28.945Z,5852
2019-02-02T09:31:28.818Z,6208
2019-02-02T09:32:28.583Z,6132
2019-02-02T09:33:28.551Z,5640
2019-02-02T09:34:31.049Z,5836
2019-02-02T09:35:28.397Z,5908
2019-02-02T09:36:28.027Z,6256
2019-02-02T09:37:28.520Z,6356
2019-02-02T09:38:28.513Z,6364
2019-02-02T09:39:28.747Z,6472
2019-02-02T09:40:30.256Z,6428
2019-02-02T09:41:28.236Z,6384
2019-02-02T09:42:28.470Z,6472
2019-02-02T09:43:28.221Z,6504
2019-02-02T09:44:28.195Z,6436
2019-02-02T09:45:28.564Z,6416
2019-02-02T09:46:28.436Z,6492
2019-02-02T09:47:28.200Z,6428
2019-02-02T09:48:28.672Z,6408
2019-02-02T09:49:28.677Z,6288
2019-02-02T09:50:27.923Z,6220
2019-02-02T09:51:28.641Z,6080
2019-02-02T09:52:28.412Z,6116
2019-02-02T09:53:31.344Z,6392
2019-02-02T09:54:34.011Z,6308
2019-02-02T09:55:28.397Z,6300
2019-02-02T09:56:28.115Z,6240
2019-02-02T09:57:30.409Z,5896
2019-02-02T09:58:28.369Z,5888
2019-02-02T09:59:28.351Z,5576
2019-02-02T10:00:28.582Z,5392
2019-02-02T10:01:35.209Z,5352
2019-02-02T10:02:31.903Z,5576
2019-02-02T10:03:28.285Z,5304
2019-02-02T10:04:28.293Z,5320
2019-02-02T10:05:28.170Z,5132
2019-02-02T10:06:28.048Z,5260
2019-02-02T10:07:28.282Z,5352
2019-02-02T10:08:30.759Z,5464
2019-02-02T10:09:28.491Z,5520
2019-02-02T10:10:28.002Z,5628
2019-02-02T10:11:28.492Z,5668
2019-02-02T10:12:28.491Z,5524
2019-02-02T10:13:28.231Z,5420
2019-02-02T10:14:27.972Z,5448
2019-02-02T10:15:28.298Z,5576
2019-02-02T10:16:28.195Z,5720
2019-02-02T10:17:28.433Z,6080
2019-02-02T10:18:28.178Z,6296
2019-02-02T10:19:28.170Z,6420
2019-02-02T10:20:27.915Z,6444
2019-02-02T10:21:27.919Z,6456
2019-02-02T10:22:28.151Z,6384
2019-02-02T10:23:27.892Z,6356
2019-02-02T10:24:31.007Z,6412
2019-02-02T10:25:27.890Z,6500
2019-02-02T10:26:28.138Z,6488
2019-02-02T10:27:27.615Z,6488
2019-02-02T10:28:27.866Z,6480
2019-02-02T10:29:27.852Z,6472
2019-02-02T10:30:29.605Z,6424
2019-02-02T10:31:38.728Z,6404
2019-02-02T10:32:28.388Z,6396
2019-02-02T10:33:28.087Z,6376
2019-02-02T10:34:27.825Z,6384
2019-02-02T10:35:27.810Z,6376
2019-02-02T10:36:27.804Z,6336
2019-02-02T10:37:28.300Z,6276
2019-02-02T10:38:28.288Z,6268
2019-02-02T10:39:27.823Z,6260
2019-02-02T10:40:29.980Z,6264
2019-02-02T10:41:28.261Z,6288
2019-02-02T10:42:28.005Z,6300
2019-02-02T10:43:28.012Z,5416
2019-02-02T10:44:27.999Z,5864
2019-02-02T10:45:28.295Z,5980
2019-02-02T10:46:28.237Z,6188
2019-02-02T10:47:27.989Z,6008
2019-02-02T10:48:27.959Z,5788
2019-02-02T10:49:27.479Z,5720
2019-02-02T10:50:27.699Z,5660
2019-02-02T10:51:30.084Z,5400
2019-02-02T10:52:28.186Z,5184
2019-02-02T10:53:27.673Z,4856
2019-02-02T10:54:28.233Z,4972
2019-02-02T10:55:28.182Z,5220
2019-02-02T10:56:27.901Z,5276
2019-02-02T10:57:28.147Z,5432
2019-02-02T10:58:27.892Z,5612
2019-02-02T10:59:27.879Z,5832
2019-02-02T11:00:28.123Z,5968
2019-02-02T11:01:27.883Z,6080
2019-02-02T11:02:27.679Z,6204
2019-02-02T11:03:27.876Z,6284
2019-02-02T11:04:28.111Z,6336
2019-02-02T11:05:28.493Z,6376
2019-02-02T11:06:28.235Z,6404
2019-02-02T11:07:27.776Z,6348
2019-02-02T11:08:28.398Z,6292
2019-02-02T11:09:28.435Z,6260
2019-02-02T11:10:28.050Z,6264
2019-02-02T11:11:28.124Z,6240
2019-02-02T11:12:28.133Z,6164
2019-02-02T11:13:27.415Z,6100
2019-02-02T11:14:28.109Z,6028
2019-02-02T11:15:28.543Z,5972
2019-02-02T11:16:27.934Z,5960
2019-02-02T11:17:28.247Z,5952
2019-02-02T11:18:28.052Z,5972
2019-02-02T11:19:27.907Z,6000
2019-02-02T11:20:28.295Z,6040
2019-02-02T11:21:28.110Z,6184
2019-02-02T11:22:28.254Z,6292
2019-02-02T11:23:28.056Z,6320
2019-02-02T11:24:32.532Z,6360
2019-02-02T11:25:28.395Z,6356
2019-02-02T11:26:28.264Z,6324
2019-02-02T11:27:27.565Z,6256
2019-02-02T11:28:28.161Z,6176
2019-02-02T11:29:27.700Z,6104
2019-02-02T11:30:28.227Z,6036
2019-02-02T11:31:27.663Z,5980
2019-02-02T11:32:27.662Z,5932
2019-02-02T11:33:27.931Z,5880
2019-02-02T11:34:27.396Z,5856
2019-02-02T11:35:27.908Z,5820
2019-02-02T11:36:27.888Z,5784
2019-02-02T11:37:27.802Z,5784
2019-02-02T11:38:27.641Z,5804
2019-02-02T11:39:27.151Z,5848
2019-02-02T11:40:27.934Z,5928
2019-02-02T11:41:27.894Z,5988
2019-02-02T11:42:27.871Z,6000
2019-02-02T11:43:27.841Z,6028
2019-02-02T11:44:27.590Z,6100
2019-02-02T11:45:27.361Z,6180
2019-02-02T11:46:27.589Z,6192
2019-02-02T11:47:27.827Z,6216
2019-02-02T11:48:27.811Z,6252
2019-02-02T11:49:30.839Z,6336
2019-02-02T11:50:27.811Z,6560
2019-02-02T11:51:27.051Z,6688
2019-02-02T11:52:30.550Z,6592
2019-02-02T11:53:27.557Z,6644
2019-02-02T11:54:27.784Z,6724
2019-02-02T11:55:27.770Z,6820
2019-02-02T11:56:27.775Z,6876
2019-02-02T11:57:27.280Z,6920
2019-02-02T11:58:27.554Z,7004
2019-02-02T11:59:27.875Z,6992
2019-02-02T12:00:27.490Z,6880
2019-02-02T12:01:27.740Z,6812
2019-02-02T12:02:27.499Z,7240
2019-02-02T12:03:27.731Z,7004
2019-02-02T12:04:27.711Z,7044
2019-02-02T12:05:27.732Z,7140
2019-02-02T12:06:27.466Z,7340
2019-02-02T12:07:27.451Z,7436
2019-02-02T12:08:27.697Z,7208
2019-02-02T12:09:27.213Z,7096
2019-02-02T12:10:27.749Z,7016
2019-02-02T12:11:27.427Z,6652
2019-02-02T12:12:27.449Z,6264
2019-02-02T12:13:27.673Z,6248
2019-02-02T12:14:27.653Z,7164
2019-02-02T12:15:26.922Z,7060
2019-02-02T12:16:27.466Z,6932
2019-02-02T12:17:27.413Z,6572
2019-02-02T12:18:27.651Z,6532
2019-02-02T12:19:27.434Z,6620
2019-02-02T12:20:27.374Z,6512
2019-02-02T12:21:27.614Z,6396
2019-02-02T12:22:27.364Z,6312
2019-02-02T12:23:27.659Z,6284
2019-02-02T12:24:27.368Z,6244
2019-02-02T12:25:27.619Z,6192
2019-02-02T12:26:27.370Z,6272
2019-02-02T12:27:27.420Z,6260
2019-02-02T12:28:27.352Z,6308
2019-02-02T12:29:27.626Z,6280
2019-02-02T12:30:27.354Z,6352
2019-02-02T12:31:27.579Z,6224
2019-02-02T12:32:33.821Z,6176
2019-02-02T12:33:30.451Z,5976
2019-02-02T12:34:27.624Z,5260
2019-02-02T12:35:27.154Z,5844
2019-02-02T12:36:27.580Z,4784
2019-02-02T12:37:27.319Z,4712
2019-02-02T12:38:27.333Z,4720
2019-02-02T12:39:27.052Z,4804
2019-02-02T12:40:27.129Z,4852
2019-02-02T12:41:27.573Z,4892
2019-02-02T12:42:27.374Z,5028
2019-02-02T12:43:27.394Z,5028
2019-02-02T12:44:27.546Z,4816
2019-02-02T12:45:27.518Z,4532
2019-02-02T12:46:27.280Z,4372
2019-02-02T12:47:27.872Z,4324
2019-02-02T12:48:27.526Z,4336
2019-02-02T12:49:27.302Z,4376
2019-02-02T12:50:27.521Z,4428
2019-02-02T12:51:27.517Z,4552
2019-02-02T12:52:30.310Z,4532
2019-02-02T12:53:27.241Z,4364
2019-02-02T12:54:27.497Z,4144
2019-02-02T12:55:30.711Z,4036
2019-02-02T12:56:26.966Z,4120
2019-02-02T12:57:27.452Z,4172
2019-02-02T12:58:27.316Z,4176
2019-02-02T12:59:27.217Z,4192
2019-02-02T13:00:27.297Z,4188
2019-02-02T13:01:27.209Z,4156
2019-02-02T13:02:40.576Z,4044
2019-02-02T13:03:26.697Z,3976
2019-02-02T13:04:26.936Z,3916
2019-02-02T13:05:27.201Z,3920
2019-02-02T13:06:27.441Z,3920
2019-02-02T13:07:27.433Z,3808
2019-02-02T13:08:26.947Z,3804
2019-02-02T13:09:27.055Z,3804
2019-02-02T13:10:29.451Z,3716
2019-02-02T13:11:28.814Z,3756
2019-02-02T13:12:26.974Z,3832
2019-02-02T13:13:26.997Z,3888
2019-02-02T13:14:27.174Z,3924
2019-02-02T13:15:27.205Z,4068
2019-02-02T13:16:27.188Z,4112
2019-02-02T13:17:27.395Z,4148
2019-02-02T13:18:27.143Z,4292
2019-02-02T13:19:27.156Z,4412
2019-02-02T13:20:27.301Z,4476
2019-02-02T13:21:27.130Z,4576
2019-02-02T13:22:26.880Z,4660
2019-02-02T13:23:27.374Z,4736
2019-02-02T13:24:27.355Z,4788
2019-02-02T13:25:27.702Z,4804
2019-02-02T13:26:27.101Z,4832
2019-02-02T13:27:26.839Z,4864
2019-02-02T13:28:27.386Z,4820
2019-02-02T13:29:26.833Z,4752
2019-02-02T13:30:27.340Z,4704
2019-02-02T13:31:28.271Z,4648
2019-02-02T13:32:27.322Z,4532
2019-02-02T13:33:27.301Z,4420
2019-02-02T13:34:27.050Z,4364
2019-02-02T13:35:27.315Z,4324
2019-02-02T13:36:27.068Z,4324
2019-02-02T13:37:26.903Z,4344
2019-02-02T13:38:27.154Z,4352
2019-02-02T13:39:27.023Z,4352
2019-02-02T13:40:27.330Z,4272
2019-02-02T13:41:27.009Z,4124
2019-02-02T13:42:27.274Z,4040
2019-02-02T13:43:26.754Z,3992
2019-02-02T13:44:26.805Z,3980
2019-02-02T13:45:26.988Z,3960
2019-02-02T13:46:27.237Z,3932
2019-02-02T13:47:26.992Z,3936
2019-02-02T13:48:26.813Z,3888
2019-02-02T13:49:27.020Z,3880
2019-02-02T13:50:27.388Z,3916
2019-02-02T13:51:27.202Z,3916
2019-02-02T13:52:26.942Z,3932
2019-02-02T13:53:26.956Z,3960
2019-02-02T13:54:27.191Z,4036
2019-02-02T13:55:26.768Z,4080
2019-02-02T13:56:26.457Z,4068
2019-02-02T13:57:26.947Z,4024
2019-02-02T13:58:26.714Z,3996
2019-02-02T13:59:27.168Z,3944
2019-02-02T14:00:26.677Z,3920
2019-02-02T14:01:26.929Z,3888